createdAt,value
2019-05-29T00:00:58.431Z,1006.74
2019-05-29T00:01:58.392Z,1006.74
2019-05-29T00:02:58.402Z,1006.76
2019-05-29T00:03:58.409Z,1006.79
2019-05-29T00:04:58.393Z,1006.81
2019-05-29T00:05:58.369Z,1006.83
2019-05-29T00:06:58.352Z,1006.82
2019-05-29T00:07:58.343Z,1006.85
2019-05-29T00:08:58.337Z,1006.83
2019-05-29T00:09:58.319Z,1006.85
2019-05-29T00:10:58.313Z,1006.85
2019-05-29T00:11:58.302Z,1006.89
2019-05-29T00:12:58.283Z,1006.89
2019-05-29T00:13:58.281Z,1006.83
2019-05-29T00:14:58.278Z,1006.85
2019-05-29T00:15:58.255Z,1006.88
2019-05-29T00:16:58.255Z,1006.88
2019-05-29T00:17:58.224Z,1006.89
2019-05-29T00:18:58.450Z,1006.96
2019-05-29T00:19:58.224Z,1006.92
2019-05-29T00:20:58.200Z,1006.93
2019-05-29T00:21:58.182Z,1006.98
2019-05-29T00:22:58.178Z,1006.98
2019-05-29T00:23:58.165Z,1006.97
2019-05-29T00:24:58.174Z,1006.99
2019-05-29T00:25:58.138Z,1007.05
2019-05-29T00:26:58.123Z,1007.03
2019-05-29T00:27:58.129Z,1006.96
2019-05-29T00:28:58.094Z,1007.02
2019-05-29T00:29:58.132Z,1007.06
2019-05-29T00:30:58.085Z,1007.03
2019-05-29T00:31:58.080Z,1007.07
2019-05-29T00:32:58.062Z,1007.05
2019-05-29T00:33:58.034Z,1007.07
2019-05-29T00:34:58.056Z,1007.11
2019-05-29T00:35:58.070Z,1007.10
2019-05-29T00:36:58.027Z,1007.10
2019-05-29T00:37:58.011Z,1007.08
2019-05-29T00:38:57.997Z,1007.07
2019-05-29T00:39:57.995Z,1007.08
2019-05-29T00:40:57.970Z,1007.07
2019-05-29T00:41:57.955Z,1007.09
2019-05-29T00:42:57.950Z,1007.10
2019-05-29T00:43:57.941Z,1007.09
2019-05-29T00:44:57.942Z,1007.08
2019-05-29T00:45:57.977Z,1007.10
2019-05-29T00:46:57.905Z,1007.04
2019-05-29T00:47:57.896Z,1007.05
2019-05-29T00:48:57.895Z,1007.08
2019-05-29T00:49:57.887Z,1007.05
2019-05-29T00:50:57.866Z,1007.08
2019-05-29T00:51:57.847Z,1007.08
2019-05-29T00:52:57.847Z,1007.09
2019-05-29T00:53:57.825Z,1007.08
2019-05-29T00:54:57.843Z,1007.15
2019-05-29T00:55:57.814Z,1007.13
2019-05-29T00:56:57.795Z,1007.16
2019-05-29T00:57:57.790Z,1007.16
2019-05-29T00:58:57.768Z,1007.21
2019-05-29T00:59:57.787Z,1007.23
2019-05-29T01:00:57.751Z,1007.25
2019-05-29T01:01:57.758Z,1007.24
2019-05-29T01:02:57.742Z,1007.27
2019-05-29T01:03:57.732Z,1007.27
2019-05-29T01:04:57.742Z,1007.32
2019-05-29T01:05:57.712Z,1007.28
2019-05-29T01:06:57.686Z,1007.32
2019-05-29T01:07:57.678Z,1007.33
2019-05-29T01:08:57.657Z,1007.33
2019-05-29T01:09:57.689Z,1007.33
2019-05-29T01:10:57.644Z,1007.29
2019-05-29T01:11:57.648Z,1007.35
2019-05-29T01:12:57.619Z,1007.40
2019-05-29T01:13:57.599Z,1007.39
2019-05-29T01:14:57.621Z,1007.46
2019-05-29T01:15:57.590Z,1007.44
2019-05-29T01:16:57.581Z,1007.50
2019-05-29T01:17:57.560Z,1007.45
2019-05-29T01:18:57.583Z,1007.47
2019-05-29T01:19:57.570Z,1007.51
2019-05-29T01:20:57.545Z,1007.48
2019-05-29T01:21:57.733Z,1007.49
2019-05-29T01:22:57.511Z,1007.52
2019-05-29T01:23:57.486Z,1007.53
2019-05-29T01:24:57.526Z,1007.56
2019-05-29T01:25:57.483Z,1007.54
2019-05-29T01:26:57.459Z,1007.51
2019-05-29T01:27:57.457Z,1007.52
2019-05-29T01:28:57.442Z,1007.52
2019-05-29T01:29:57.445Z,1007.51
2019-05-29T01:30:57.424Z,1007.51
2019-05-29T01:31:57.405Z,1007.55
2019-05-29T01:32:57.388Z,1007.62
2019-05-29T01:33:57.378Z,1007.66
2019-05-29T01:34:57.395Z,1007.72
2019-05-29T01:35:57.369Z,1007.74
2019-05-29T01:36:57.345Z,1007.73
2019-05-29T01:37:57.354Z,1007.80
2019-05-29T01:38:57.346Z,1007.83
2019-05-29T01:39:57.330Z,1007.83
2019-05-29T01:40:57.321Z,1007.89
2019-05-29T01:41:57.312Z,1007.84
2019-05-29T01:42:57.282Z,1007.88
2019-05-29T01:43:57.279Z,1007.86
2019-05-29T01:45:07.097Z,1007.94
2019-05-29T01:45:58.255Z,1007.97
2019-05-29T01:46:57.244Z,1007.95
2019-05-29T01:47:57.247Z,1008.00
2019-05-29T01:48:57.228Z,1008.00
2019-05-29T01:49:57.216Z,1007.99
2019-05-29T01:50:57.184Z,1008.01
2019-05-29T01:51:57.189Z,1008.00
2019-05-29T01:52:57.181Z,1008.00
2019-05-29T01:53:57.170Z,1008.02
2019-05-29T01:54:57.164Z,1008.01
2019-05-29T01:55:57.157Z,1008.04
2019-05-29T01:56:57.130Z,1008.07
2019-05-29T01:57:57.116Z,1008.08
2019-05-29T01:58:57.119Z,1008.14
2019-05-29T01:59:57.107Z,1008.11
2019-05-29T02:00:57.076Z,1008.10
2019-05-29T02:01:57.094Z,1008.17
2019-05-29T02:02:57.059Z,1008.13
2019-05-29T02:03:57.046Z,1008.15
2019-05-29T02:04:57.065Z,1008.13
2019-05-29T02:05:57.027Z,1008.10
2019-05-29T02:06:57.040Z,1008.17
2019-05-29T02:07:57.013Z,1008.11
2019-05-29T02:08:57.009Z,1008.21
2019-05-29T02:09:57.003Z,1008.16
2019-05-29T02:10:56.979Z,1008.17
2019-05-29T02:11:56.974Z,1008.23
2019-05-29T02:12:56.944Z,1008.25
2019-05-29T02:13:56.946Z,1008.22
2019-05-29T02:14:56.946Z,1008.24
2019-05-29T02:15:56.915Z,1008.21
2019-05-29T02:16:56.904Z,1008.24
2019-05-29T02:17:56.924Z,1008.22
2019-05-29T02:18:56.885Z,1008.20
2019-05-29T02:19:56.955Z,1008.26
2019-05-29T02:20:56.872Z,1008.26
2019-05-29T02:21:56.874Z,1008.34
2019-05-29T02:22:56.867Z,1008.37
2019-05-29T02:23:56.848Z,1008.34
2019-05-29T02:24:56.858Z,1008.35
2019-05-29T02:25:56.818Z,1008.36
2019-05-29T02:26:56.795Z,1008.38
2019-05-29T02:27:56.803Z,1008.39
2019-05-29T02:28:56.774Z,1008.41
2019-05-29T02:29:56.783Z,1008.41
2019-05-29T02:30:56.757Z,1008.37
2019-05-29T02:31:56.747Z,1008.43
2019-05-29T02:32:56.739Z,1008.41
2019-05-29T02:33:56.726Z,1008.39
2019-05-29T02:34:56.953Z,1008.44
2019-05-29T02:35:56.722Z,1008.44
2019-05-29T02:36:56.682Z,1008.43
2019-05-29T02:37:56.683Z,1008.49
2019-05-29T02:38:56.700Z,1008.46
2019-05-29T02:39:56.679Z,1008.43
2019-05-29T02:40:56.656Z,1008.45
2019-05-29T02:41:56.653Z,1008.49
2019-05-29T02:42:56.631Z,1008.53
2019-05-29T02:43:56.616Z,1008.50
2019-05-29T02:44:56.618Z,1008.51
2019-05-29T02:45:56.621Z,1008.56
2019-05-29T02:46:56.598Z,1008.53
2019-05-29T02:47:56.584Z,1008.50
2019-05-29T02:48:56.567Z,1008.57
2019-05-29T02:49:56.573Z,1008.56
2019-05-29T02:50:56.555Z,1008.50
2019-05-29T02:51:56.531Z,1008.51
2019-05-29T02:52:57.429Z,1008.57
2019-05-29T02:53:56.526Z,1008.47
2019-05-29T02:54:56.512Z,1008.50
2019-05-29T02:55:56.470Z,1008.53
2019-05-29T02:56:56.476Z,1008.59
2019-05-29T02:57:56.485Z,1008.64
2019-05-29T02:58:56.445Z,1008.61
2019-05-29T02:59:56.479Z,1008.66
2019-05-29T03:00:56.433Z,1008.70
2019-05-29T03:01:56.415Z,1008.70
2019-05-29T03:02:56.444Z,1008.67
2019-05-29T03:03:56.389Z,1008.73
2019-05-29T03:04:56.409Z,1008.73
2019-05-29T03:05:56.390Z,1008.78
2019-05-29T03:06:56.350Z,1008.81
2019-05-29T03:07:56.358Z,1008.86
2019-05-29T03:08:56.331Z,1008.80
2019-05-29T03:09:56.332Z,1008.82
2019-05-29T03:10:56.333Z,1008.86
2019-05-29T03:12:00.057Z,1008.91
2019-05-29T03:12:56.336Z,1008.91
2019-05-29T03:13:56.302Z,1009.00
2019-05-29T03:14:56.306Z,1008.99
2019-05-29T03:16:09.840Z,1009.03
2019-05-29T03:16:57.256Z,1009.10
2019-05-29T03:17:56.260Z,1009.09
2019-05-29T03:18:56.227Z,1009.13
2019-05-29T03:19:56.235Z,1009.15
2019-05-29T03:20:56.212Z,1009.15
2019-05-29T03:21:56.238Z,1009.17
2019-05-29T03:22:56.187Z,1009.26
2019-05-29T03:23:56.184Z,1009.22
2019-05-29T03:24:56.194Z,1009.26
2019-05-29T03:25:56.154Z,1009.25
2019-05-29T03:26:56.162Z,1009.27
2019-05-29T03:27:56.198Z,1009.33
2019-05-29T03:28:56.122Z,1009.30
2019-05-29T03:29:56.136Z,1009.34
2019-05-29T03:30:56.115Z,1009.34
2019-05-29T03:31:56.080Z,1009.35
2019-05-29T03:32:56.079Z,1009.39
2019-05-29T03:33:56.061Z,1009.39
2019-05-29T03:34:56.063Z,1009.33
2019-05-29T03:35:56.053Z,1009.40
2019-05-29T03:36:56.029Z,1009.45
2019-05-29T03:37:58.790Z,1009.51
2019-05-29T03:38:56.012Z,1009.54
2019-05-29T03:39:56.052Z,1009.56
2019-05-29T03:40:55.997Z,1009.57
2019-05-29T03:41:55.975Z,1009.50
2019-05-29T03:42:55.979Z,1009.57
2019-05-29T03:43:55.951Z,1009.59
2019-05-29T03:44:55.951Z,1009.61
2019-05-29T03:45:55.927Z,1009.62
2019-05-29T03:46:55.932Z,1009.62
2019-05-29T03:47:55.914Z,1009.68
2019-05-29T03:48:55.917Z,1009.70
2019-05-29T03:49:55.904Z,1009.74
2019-05-29T03:50:55.869Z,1009.73
2019-05-29T03:51:55.871Z,1009.81
2019-05-29T03:52:55.862Z,1009.80
2019-05-29T03:53:55.848Z,1009.84
2019-05-29T03:54:55.852Z,1009.87
2019-05-29T03:55:55.825Z,1009.92
2019-05-29T03:56:55.816Z,1009.91
2019-05-29T03:57:55.817Z,1009.92
2019-05-29T03:58:55.801Z,1009.92
2019-05-29T03:59:55.783Z,1009.92
2019-05-29T04:00:55.771Z,1009.94
2019-05-29T04:01:55.768Z,1009.93
2019-05-29T04:02:55.746Z,1009.93
2019-05-29T04:03:55.737Z,1009.95
2019-05-29T04:04:55.755Z,1010.05
2019-05-29T04:05:55.729Z,1010.00
2019-05-29T04:06:55.719Z,1010.01
2019-05-29T04:07:55.700Z,1010.05
2019-05-29T04:08:55.684Z,1010.06
2019-05-29T04:09:55.674Z,1010.08
2019-05-29T04:10:55.667Z,1010.10
2019-05-29T04:11:55.657Z,1010.10
2019-05-29T04:12:55.626Z,1010.13
2019-05-29T04:13:55.619Z,1010.15
2019-05-29T04:14:55.630Z,1010.17
2019-05-29T04:15:55.605Z,1010.15
2019-05-29T04:16:59.817Z,1010.22
2019-05-29T04:17:55.577Z,1010.21
2019-05-29T04:18:55.572Z,1010.27
2019-05-29T04:19:55.586Z,1010.15
2019-05-29T04:20:55.548Z,1010.24
2019-05-29T04:21:55.543Z,1010.29
2019-05-29T04:22:55.525Z,1010.31
2019-05-29T04:23:55.516Z,1010.32
2019-05-29T04:24:55.545Z,1010.29
2019-05-29T04:25:55.486Z,1010.36
2019-05-29T04:26:55.485Z,1010.35
2019-05-29T04:27:55.470Z,1010.34
2019-05-29T04:28:55.476Z,1010.31
2019-05-29T04:29:55.454Z,1010.41
2019-05-29T04:30:55.453Z,1010.36
2019-05-29T04:31:55.421Z,1010.37
2019-05-29T04:32:55.429Z,1010.41
2019-05-29T04:33:55.397Z,1010.35
2019-05-29T04:34:55.397Z,1010.41
2019-05-29T04:35:55.386Z,1010.44
2019-05-29T04:36:55.369Z,1010.42
2019-05-29T04:37:55.353Z,1010.53
2019-05-29T04:38:55.353Z,1010.50
2019-05-29T04:39:55.343Z,1010.44
2019-05-29T04:40:55.347Z,1010.48
2019-05-29T04:41:55.335Z,1010.50
2019-05-29T04:42:55.293Z,1010.55
2019-05-29T04:43:57.168Z,1010.48
2019-05-29T04:44:55.280Z,1010.53
2019-05-29T04:45:55.274Z,1010.58
2019-05-29T04:47:10.404Z,1010.59
2019-05-29T04:47:56.248Z,1010.55
2019-05-29T04:48:55.227Z,1010.65
2019-05-29T04:49:55.235Z,1010.64
2019-05-29T04:50:55.228Z,1010.65
2019-05-29T04:51:55.220Z,1010.69
2019-05-29T04:52:55.188Z,1010.66
2019-05-29T04:53:55.174Z,1010.57
2019-05-29T04:54:55.173Z,1010.67
2019-05-29T04:55:55.181Z,1010.69
2019-05-29T04:56:55.165Z,1010.68
2019-05-29T04:57:55.144Z,1010.72
2019-05-29T04:58:55.130Z,1010.74
2019-05-29T04:59:55.126Z,1010.72
2019-05-29T05:00:59.171Z,1010.74
2019-05-29T05:01:55.096Z,1010.77
2019-05-29T05:02:55.090Z,1010.70
2019-05-29T05:03:55.060Z,1010.79
2019-05-29T05:04:55.078Z,1010.84
2019-05-29T05:05:55.080Z,1010.83
2019-05-29T05:06:55.036Z,1010.86
2019-05-29T05:07:55.065Z,1010.89
2019-05-29T05:08:55.028Z,1010.89
2019-05-29T05:09:54.996Z,1010.93
2019-05-29T05:10:55.002Z,1010.92
2019-05-29T05:11:54.981Z,1010.99
2019-05-29T05:12:54.977Z,1011.01
2019-05-29T05:13:54.955Z,1011.04
2019-05-29T05:14:54.965Z,1011.01
2019-05-29T05:15:54.947Z,1011.05
2019-05-29T05:16:54.921Z,1011.13
2019-05-29T05:17:54.916Z,1011.09
2019-05-29T05:18:54.918Z,1011.11
2019-05-29T05:19:54.898Z,1011.13
2019-05-29T05:20:54.897Z,1011.12
2019-05-29T05:21:54.919Z,1011.14
2019-05-29T05:22:54.862Z,1011.15
2019-05-29T05:23:54.855Z,1011.09
2019-05-29T05:24:55.485Z,1011.09
2019-05-29T05:25:54.825Z,1011.15
2019-05-29T05:26:54.813Z,1011.11
2019-05-29T05:27:54.806Z,1011.21
2019-05-29T05:28:54.823Z,1011.18
2019-05-29T05:29:54.777Z,1011.21
2019-05-29T05:30:54.784Z,1011.25
2019-05-29T05:31:54.773Z,1011.27
2019-05-29T05:32:54.742Z,1011.35
2019-05-29T05:33:54.752Z,1011.31
2019-05-29T05:34:54.732Z,1011.31
2019-05-29T05:35:54.726Z,1011.36
2019-05-29T05:36:54.713Z,1011.37
2019-05-29T05:37:54.708Z,1011.34
2019-05-29T05:38:54.735Z,1011.45
2019-05-29T05:39:54.671Z,1011.42
2019-05-29T05:40:54.665Z,1011.38
2019-05-29T05:41:54.641Z,1011.38
2019-05-29T05:42:54.642Z,1011.45
2019-05-29T05:43:54.645Z,1011.43
2019-05-29T05:44:54.622Z,1011.56
2019-05-29T05:45:54.618Z,1011.55
2019-05-29T05:46:54.607Z,1011.56
2019-05-29T05:47:57.837Z,1011.55
2019-05-29T05:48:54.568Z,1011.55
2019-05-29T05:49:54.567Z,1011.50
2019-05-29T05:50:54.556Z,1011.58
2019-05-29T05:51:54.540Z,1011.60
2019-05-29T05:52:54.531Z,1011.66
2019-05-29T05:53:54.519Z,1011.64
2019-05-29T05:54:54.507Z,1011.72
2019-05-29T05:55:54.543Z,1011.73
2019-05-29T05:56:54.516Z,1011.71
2019-05-29T05:57:54.466Z,1011.71
2019-05-29T05:58:54.467Z,1011.69
2019-05-29T05:59:54.457Z,1011.77
2019-05-29T06:00:54.450Z,1011.74
2019-05-29T06:01:54.428Z,1011.80
2019-05-29T06:02:54.409Z,1011.76
2019-05-29T06:03:54.411Z,1011.79
2019-05-29T06:04:54.389Z,1011.86
2019-05-29T06:05:54.394Z,1011.92
2019-05-29T06:06:54.361Z,1011.96
2019-05-29T06:07:54.363Z,1011.94
2019-05-29T06:08:54.349Z,1011.95
2019-05-29T06:09:54.345Z,1011.97
2019-05-29T06:10:54.352Z,1011.99
2019-05-29T06:11:54.315Z,1012.03
2019-05-29T06:12:54.295Z,1012.01
2019-05-29T06:13:54.295Z,1012.05
2019-05-29T06:14:54.291Z,1012.12
2019-05-29T06:15:54.279Z,1012.13
2019-05-29T06:16:54.261Z,1012.06
2019-05-29T06:18:17.113Z,1012.11
2019-05-29T06:18:55.234Z,1012.15
2019-05-29T06:19:54.215Z,1012.10
2019-05-29T06:20:54.216Z,1012.06
2019-05-29T06:21:54.211Z,1012.11
2019-05-29T06:22:54.203Z,1012.16
2019-05-29T06:23:54.195Z,1012.14
2019-05-29T06:24:54.178Z,1012.28
2019-05-29T06:25:54.183Z,1012.23
2019-05-29T06:26:54.150Z,1012.26
2019-05-29T06:27:54.145Z,1012.30
2019-05-29T06:28:54.139Z,1012.36
2019-05-29T06:29:54.109Z,1012.33
2019-05-29T06:30:54.119Z,1012.37
2019-05-29T06:31:54.074Z,1012.43
2019-05-29T06:32:54.085Z,1012.43
2019-05-29T06:33:54.070Z,1012.45
2019-05-29T06:34:54.077Z,1012.48
2019-05-29T06:35:54.074Z,1012.50
2019-05-29T06:36:54.062Z,1012.48
2019-05-29T06:37:54.030Z,1012.45
2019-05-29T06:38:54.022Z,1012.51
2019-05-29T06:39:54.012Z,1012.53
2019-05-29T06:40:54.005Z,1012.56
2019-05-29T06:41:53.985Z,1012.59
2019-05-29T06:42:53.996Z,1012.56
2019-05-29T06:43:53.955Z,1012.63
2019-05-29T06:44:53.981Z,1012.58
2019-05-29T06:45:53.960Z,1012.63
2019-05-29T06:46:53.932Z,1012.69
2019-05-29T06:47:53.927Z,1012.70
2019-05-29T06:49:00.417Z,1012.72
2019-05-29T06:49:54.902Z,1012.73
2019-05-29T06:50:57.113Z,1012.67
2019-05-29T06:51:53.884Z,1012.71
2019-05-29T06:52:53.855Z,1012.71
2019-05-29T06:53:53.859Z,1012.69
2019-05-29T06:54:53.856Z,1012.72
2019-05-29T06:55:55.744Z,1012.73
2019-05-29T06:56:53.833Z,1012.77
2019-05-29T06:57:53.810Z,1012.82
2019-05-29T06:58:53.828Z,1012.73
2019-05-29T06:59:53.810Z,1012.74
2019-05-29T07:00:53.783Z,1012.71
2019-05-29T07:01:53.779Z,1012.77
2019-05-29T07:02:53.747Z,1012.88
2019-05-29T07:04:10.474Z,1012.84
2019-05-29T07:04:54.748Z,1012.85
2019-05-29T07:05:53.743Z,1012.92
2019-05-29T07:06:53.740Z,1012.97
2019-05-29T07:07:53.724Z,1012.94
2019-05-29T07:08:53.704Z,1013.00
2019-05-29T07:09:53.685Z,1012.97
2019-05-29T07:10:53.726Z,1013.05
2019-05-29T07:11:53.678Z,1013.01
2019-05-29T07:12:53.654Z,1012.85
2019-05-29T07:13:53.657Z,1012.97
2019-05-29T07:14:53.626Z,1012.98
2019-05-29T07:15:53.634Z,1012.89
2019-05-29T07:16:56.188Z,1012.88
2019-05-29T07:17:53.606Z,1012.87
2019-05-29T07:19:23.759Z,1012.92
2019-05-29T07:20:03.378Z,1013.00
2019-05-29T07:20:54.588Z,1013.04
2019-05-29T07:21:53.580Z,1013.04
2019-05-29T07:22:53.554Z,1013.10
2019-05-29T07:23:53.532Z,1013.14
2019-05-29T07:24:53.535Z,1013.17
2019-05-29T07:25:53.517Z,1013.04
2019-05-29T07:26:53.532Z,1013.06
2019-05-29T07:27:53.508Z,1013.11
2019-05-29T07:29:06.465Z,1013.11
2019-05-29T07:29:54.486Z,1013.16
2019-05-29T07:31:01.209Z,1013.18
2019-05-29T07:31:54.464Z,1013.24
2019-05-29T07:32:58.324Z,1013.26
2019-05-29T07:33:54.432Z,1013.16
2019-05-29T07:35:03.036Z,1013.30
2019-05-29T07:35:54.416Z,1013.37
2019-05-29T07:36:53.426Z,1013.33
2019-05-29T07:37:53.410Z,1013.39
2019-05-29T07:39:02.718Z,1013.25
2019-05-29T07:39:54.370Z,1013.42
2019-05-29T07:40:53.398Z,1013.30
2019-05-29T07:41:53.361Z,1013.28
2019-05-29T07:42:56.795Z,1013.26
2019-05-29T07:43:53.325Z,1013.26
2019-05-29T07:44:53.331Z,1013.19
2019-05-29T07:45:53.327Z,1013.36
2019-05-29T07:46:53.335Z,1013.42
2019-05-29T07:47:53.296Z,1013.43
2019-05-29T07:48:53.278Z,1013.51
2019-05-29T07:49:53.268Z,1013.34
2019-05-29T07:51:06.240Z,1013.28
2019-05-29T07:51:54.304Z,1013.19
2019-05-29T07:52:53.344Z,1013.23
2019-05-29T07:53:53.228Z,1013.22
2019-05-29T07:54:53.275Z,1013.24
2019-05-29T07:55:53.201Z,1013.34
2019-05-29T07:56:53.216Z,1013.47
2019-05-29T07:57:53.196Z,1013.56
2019-05-29T07:59:02.212Z,1013.60
2019-05-29T07:59:54.153Z,1013.57
2019-05-29T08:01:05.370Z,1013.58
2019-05-29T08:01:54.158Z,1013.43
2019-05-29T08:02:53.131Z,1013.37
2019-05-29T08:03:53.127Z,1013.43
2019-05-29T08:04:53.109Z,1013.43
2019-05-29T08:05:53.517Z,1013.45
2019-05-29T08:06:54.617Z,1013.43
2019-05-29T08:07:53.123Z,1013.39
2019-05-29T08:08:53.072Z,1013.41
2019-05-29T08:09:53.056Z,1013.49
2019-05-29T08:10:53.041Z,1013.49
2019-05-29T08:11:53.052Z,1013.47
2019-05-29T08:12:55.597Z,1013.46
2019-05-29T08:13:53.010Z,1013.46
2019-05-29T08:14:53.026Z,1013.49
2019-05-29T08:16:02.330Z,1013.50
2019-05-29T08:16:54.000Z,1013.46
2019-05-29T08:17:52.961Z,1013.49
2019-05-29T08:18:53.334Z,1013.53
2019-05-29T08:20:03.185Z,1013.51
2019-05-29T08:20:53.946Z,1013.76
2019-05-29T08:21:52.931Z,1013.72
2019-05-29T08:22:52.924Z,1013.78
2019-05-29T08:23:52.903Z,1013.87
2019-05-29T08:24:52.884Z,1013.95
2019-05-29T08:25:52.869Z,1013.88
2019-05-29T08:26:52.897Z,1013.99
2019-05-29T08:27:52.853Z,1014.00
2019-05-29T08:28:52.845Z,1013.95
2019-05-29T08:29:52.859Z,1014.06
2019-05-29T08:30:56.418Z,1014.03
2019-05-29T08:31:52.827Z,1014.04
2019-05-29T08:32:52.829Z,1014.05
2019-05-29T08:33:52.805Z,1014.04
2019-05-29T08:34:52.782Z,1014.08
2019-05-29T08:35:59.362Z,1014.08
2019-05-29T08:37:04.873Z,1014.10
2019-05-29T08:37:53.765Z,1014.21
2019-05-29T08:38:52.741Z,1013.99
2019-05-29T08:39:52.737Z,1013.84
2019-05-29T08:40:52.740Z,1013.83
2019-05-29T08:42:18.104Z,1013.84
2019-05-29T08:42:53.706Z,1013.83
2019-05-29T08:43:52.899Z,1014.05
2019-05-29T08:44:52.684Z,1013.95
2019-05-29T08:45:52.840Z,1013.84
2019-05-29T08:47:08.961Z,1014.09
2019-05-29T08:47:53.646Z,1014.09
2019-05-29T08:48:52.654Z,1014.22
2019-05-29T08:49:54.437Z,1014.19
2019-05-29T08:50:52.644Z,1014.26
2019-05-29T08:52:10.194Z,1014.23
2019-05-29T08:52:53.616Z,1014.22
2019-05-29T08:53:54.712Z,1014.29
2019-05-29T08:54:52.595Z,1014.30
2019-05-29T08:55:52.751Z,1014.34
2019-05-29T08:56:52.602Z,1014.29
2019-05-29T08:57:52.571Z,1014.36
2019-05-29T08:58:52.626Z,1014.31
2019-05-29T08:59:52.722Z,1014.07
2019-05-29T09:00:55.208Z,1014.06
2019-05-29T09:01:55.276Z,1014.12
2019-05-29T09:02:52.873Z,1014.27
2019-05-29T09:03:53.323Z,1014.33
2019-05-29T09:04:54.690Z,1014.39
2019-05-29T09:06:08.181Z,1014.40
2019-05-29T09:06:53.638Z,1014.24
2019-05-29T09:07:54.265Z,1014.36
2019-05-29T09:08:54.728Z,1014.34
2019-05-29T09:09:53.297Z,1014.43
2019-05-29T09:10:53.935Z,1014.45
2019-05-29T09:11:53.627Z,1014.45
2019-05-29T09:13:03.618Z,1014.45
2019-05-29T09:13:53.415Z,1014.48
2019-05-29T09:14:52.524Z,1014.48
2019-05-29T09:15:52.413Z,1014.50
2019-05-29T09:16:52.476Z,1014.55
2019-05-29T09:17:52.358Z,1014.46
2019-05-29T09:18:52.358Z,1014.27
2019-05-29T09:19:52.348Z,1014.22
2019-05-29T09:21:02.804Z,1014.46
2019-05-29T09:21:53.338Z,1014.50
2019-05-29T09:22:52.326Z,1014.30
2019-05-29T09:23:52.297Z,1014.20
2019-05-29T09:24:52.296Z,1014.44
2019-05-29T09:25:52.288Z,1014.43
2019-05-29T09:26:52.289Z,1014.59
2019-05-29T09:27:52.284Z,1014.26
2019-05-29T09:28:52.264Z,1014.25
2019-05-29T09:29:52.274Z,1014.42
2019-05-29T09:30:52.234Z,1014.46
2019-05-29T09:31:52.243Z,1014.50
2019-05-29T09:32:53.120Z,1014.56
2019-05-29T09:33:52.212Z,1014.63
2019-05-29T09:34:52.243Z,1014.40
2019-05-29T09:35:52.196Z,1014.39
2019-05-29T09:36:55.478Z,1014.43
2019-05-29T09:37:52.173Z,1014.60
2019-05-29T09:38:52.175Z,1014.55
2019-05-29T09:39:52.151Z,1014.31
2019-05-29T09:40:52.948Z,1014.62
2019-05-29T09:41:52.144Z,1014.34
2019-05-29T09:42:52.117Z,1014.29
2019-05-29T09:43:58.600Z,1014.29
2019-05-29T09:44:53.103Z,1014.39
2019-05-29T09:45:52.085Z,1014.64
2019-05-29T09:46:52.111Z,1014.61
2019-05-29T09:47:52.064Z,1014.61
2019-05-29T09:48:52.079Z,1014.63
2019-05-29T09:49:52.063Z,1014.59
2019-05-29T09:50:52.049Z,1014.67
2019-05-29T09:51:52.671Z,1014.69
2019-05-29T09:52:54.510Z,1014.67
2019-05-29T09:53:52.460Z,1014.75
2019-05-29T09:54:53.469Z,1014.74
2019-05-29T09:55:52.291Z,1014.69
2019-05-29T09:56:52.240Z,1014.72
2019-05-29T09:57:53.522Z,1014.80
2019-05-29T09:58:53.654Z,1014.81
2019-05-29T09:59:53.795Z,1014.87
2019-05-29T10:01:09.599Z,1014.86
2019-05-29T10:01:54.666Z,1014.62
2019-05-29T10:02:52.819Z,1014.60
2019-05-29T10:03:54.627Z,1014.62
2019-05-29T10:04:53.127Z,1014.61
2019-05-29T10:05:53.961Z,1014.61
2019-05-29T10:06:53.131Z,1014.64
2019-05-29T10:07:53.102Z,1014.68
2019-05-29T10:08:51.860Z,1014.59
2019-05-29T10:09:51.862Z,1014.51
2019-05-29T10:10:51.874Z,1014.52
2019-05-29T10:11:51.860Z,1014.79
2019-05-29T10:12:51.833Z,1014.87
2019-05-29T10:13:51.827Z,1014.92
2019-05-29T10:14:51.839Z,1014.89
2019-05-29T10:15:51.800Z,1014.67
2019-05-29T10:16:51.812Z,1014.62
2019-05-29T10:17:51.789Z,1014.74
2019-05-29T10:18:51.781Z,1014.73
2019-05-29T10:19:51.772Z,1014.84
2019-05-29T10:20:51.757Z,1014.83
2019-05-29T10:21:51.766Z,1014.87
2019-05-29T10:22:51.736Z,1014.90
2019-05-29T10:23:51.755Z,1014.91
2019-05-29T10:24:51.713Z,1014.99
2019-05-29T10:25:51.711Z,1015.03
2019-05-29T10:26:51.716Z,1015.04
2019-05-29T10:27:51.725Z,1015.01
2019-05-29T10:29:04.419Z,1015.00
2019-05-29T10:29:53.203Z,1015.02
2019-05-29T10:30:52.760Z,1015.06
2019-05-29T10:31:53.444Z,1015.03
2019-05-29T10:32:52.895Z,1015.03
2019-05-29T10:33:52.402Z,1014.77
2019-05-29T10:34:52.673Z,1014.86
2019-05-29T10:35:53.847Z,1014.95
2019-05-29T10:36:53.515Z,1014.92
2019-05-29T10:37:52.872Z,1015.02
2019-05-29T10:38:52.613Z,1015.09
2019-05-29T10:39:52.904Z,1014.91
2019-05-29T10:41:00.402Z,1015.03
2019-05-29T10:41:53.037Z,1014.84
2019-05-29T10:42:51.747Z,1015.10
2019-05-29T10:43:51.534Z,1015.14
2019-05-29T10:44:51.532Z,1014.95
2019-05-29T10:45:52.131Z,1015.15
2019-05-29T10:46:52.498Z,1015.18
2019-05-29T10:47:52.375Z,1015.15
2019-05-29T10:48:54.226Z,1015.12
2019-05-29T10:49:51.828Z,1015.12
2019-05-29T10:50:53.577Z,1015.18
2019-05-29T10:52:09.381Z,1015.14
2019-05-29T10:52:52.469Z,1015.22
2019-05-29T10:53:53.142Z,1015.21
2019-05-29T10:54:52.456Z,1015.11
2019-05-29T10:55:52.626Z,1015.12
2019-05-29T10:56:52.487Z,1015.17
2019-05-29T10:57:52.926Z,1015.24
2019-05-29T10:58:57.370Z,1015.24
2019-05-29T10:59:52.868Z,1015.24
2019-05-29T11:00:51.402Z,1015.22
2019-05-29T11:01:51.896Z,1015.23
2019-05-29T11:02:53.465Z,1015.20
2019-05-29T11:03:52.343Z,1015.19
2019-05-29T11:04:54.751Z,1015.18
2019-05-29T11:05:53.687Z,1015.19
2019-05-29T11:06:52.453Z,1015.20
2019-05-29T11:07:51.883Z,1015.23
2019-05-29T11:08:52.041Z,1015.23
2019-05-29T11:09:52.154Z,1015.20
2019-05-29T11:10:52.069Z,1015.19
2019-05-29T11:11:53.089Z,1015.26
2019-05-29T11:12:52.510Z,1015.22
2019-05-29T11:13:51.275Z,1015.28
2019-05-29T11:14:51.266Z,1015.25
2019-05-29T11:15:51.258Z,1015.23
2019-05-29T11:16:51.246Z,1015.22
2019-05-29T11:17:51.486Z,1015.20
2019-05-29T11:18:51.310Z,1015.15
2019-05-29T11:19:51.256Z,1015.25
2019-05-29T11:20:51.406Z,1015.19
2019-05-29T11:21:51.712Z,1015.16
2019-05-29T11:22:51.650Z,1015.18
2019-05-29T11:23:51.813Z,1015.22
2019-05-29T11:24:52.370Z,1015.22
2019-05-29T11:25:52.097Z,1014.94
2019-05-29T11:26:52.565Z,1014.90
2019-05-29T11:27:53.034Z,1014.87
2019-05-29T11:28:52.311Z,1014.79
2019-05-29T11:29:53.069Z,1015.01
2019-05-29T11:30:52.313Z,1015.15
2019-05-29T11:31:51.153Z,1015.13
2019-05-29T11:32:53.037Z,1015.08
2019-05-29T11:33:51.107Z,1015.12
2019-05-29T11:34:52.365Z,1015.14
2019-05-29T11:36:03.294Z,1015.08
2019-05-29T11:36:52.068Z,1015.13
2019-05-29T11:37:52.352Z,1015.10
2019-05-29T11:38:52.461Z,1015.11
2019-05-29T11:39:52.412Z,1015.07
2019-05-29T11:41:04.980Z,1015.10
2019-05-29T11:41:52.670Z,1015.14
2019-05-29T11:42:51.034Z,1015.15
2019-05-29T11:43:51.008Z,1014.85
2019-05-29T11:44:51.016Z,1015.06
2019-05-29T11:45:51.221Z,1015.01
2019-05-29T11:46:52.111Z,1014.97
2019-05-29T11:47:51.556Z,1014.81
2019-05-29T11:48:51.161Z,1014.88
2019-05-29T11:49:51.000Z,1014.75
2019-05-29T11:50:52.060Z,1015.00
2019-05-29T11:51:51.619Z,1015.06
2019-05-29T11:52:50.976Z,1015.04
2019-05-29T11:53:51.451Z,1015.00
2019-05-29T11:54:53.601Z,1015.06
2019-05-29T11:55:52.459Z,1015.17
2019-05-29T11:56:52.258Z,1015.11
2019-05-29T11:57:51.832Z,1015.10
2019-05-29T11:58:50.906Z,1015.05
2019-05-29T11:59:51.848Z,1015.04
2019-05-29T12:00:50.852Z,1014.99
2019-05-29T12:01:52.222Z,1015.05
2019-05-29T12:02:51.518Z,1015.10
2019-05-29T12:04:15.439Z,1015.12
2019-05-29T12:04:52.994Z,1015.13
2019-05-29T12:05:51.172Z,1015.06